Airfield :
LOGIN :

Register | Disclaimer

   EN    FR    IT 

 










Legend :    VFR   Marginal VFR   IFR   Intensive IFR   Very Intensive IFR
Visi :
Ceiling :
>= 8 km
>= 3000ft
5 to 8 km
1000 to 3000 ft
1500m to 5 km
500 to 1000 ft
800 to 1500m
200 to 500 ft
< 800m
< 200 ft
Symbols :   Thunderstorms  Fog  Heavy snow  Heavy precipitations  Wind > 20 kt
SIGMETs :     Misc.  Thunderstorms  Icing  Turbulence  Mountain Waves  Volcanic Ashes







- Airport Elevation : 1247 ft
- IATA code : PRG


LKPR - Praha Ruzyne

CURRENT METAR :
  • 212200Z 11005KT CAVOK 20/13 Q1014 NOSIG

EXPIRED METARs :
  • 212130Z 10007KT CAVOK 20/13 Q1014 NOSIG
  • 212100Z 10005KT CAVOK 20/13 Q1014 NOSIG
  • 212030Z 10005KT CAVOK 21/13 Q1014 NOSIG
  • 212000Z 10004KT 080V190 CAVOK 22/13 Q1014 NOSIG
  • 211930Z 10004KT CAVOK 23/12 Q1014 NOSIG

TAF TAF LKPR
Valid from the 21 at 18:00 until the 23 at 00:00 UTC


211700Z 2118/2300 07006KT CAVOK
TEMPO 2206/2218 8000 SHRA SCT036TCU BKN040
PROB30
TEMPO 2209/2218 SCT036CB
No reported NOTAMs for that airfield.



MET'MAP, your aeronautical weather chart ! - Copyright ORBIFLY December 2007 - Disclaimer

ORBIFLY MET'MAP TEAM :

Programming & Development : Alexandra Zaïnal
Concept & Development : Baudouin d'Aumeries
Co-Development & Prog : Marc-Olivier Méhu
Technical & hardware support : Manuel Goepfert

Contact : metmap@orbifly.com




SOURCES & CREDITS :

   NOAA